Time;durP1;ratioP1;P1;durP2;ratioP2;P2;SDS_P1;SDS_P2;PMS_P1;PMS_P2;Temp;Humidity;BMP_temperature;BMP_pressure;BME280_temperature;BME280_humidity;BME280_pressure;Samples;Min_cycle;Max_cycle;Signal;HPM_P1;HPM_P2
2022/05/10 00:02:14;;;;;;;7.43;4.30;;;10.70;99.90;;;;;;5072664;28;20106;-81
2022/05/10 00:04:44;;;;;;;9.63;4.10;;;10.60;99.90;;;;;;5073401;28;20099;-81
2022/05/10 00:07:10;;;;;;;6.43;4.20;;;10.60;99.90;;;;;;5072910;28;20082;-81
2022/05/10 00:09:35;;;;;;;7.10;3.65;;;10.50;99.90;;;;;;5072704;28;20032;-81
2022/05/10 00:12:01;;;;;;;5.22;3.40;;;10.50;99.90;;;;;;5072528;28;20029;-81
2022/05/10 00:14:30;;;;;;;5.50;3.10;;;10.40;99.90;;;;;;5072737;28;20028;-81
2022/05/10 00:16:56;;;;;;;4.60;3.05;;;10.40;99.90;;;;;;5073443;28;20547;-81
2022/05/10 00:19:27;;;;;;;6.25;3.40;;;10.40;99.90;;;;;;5071186;28;20107;-81
2022/05/10 00:21:53;;;;;;;5.35;3.45;;;10.40;99.90;;;;;;5072700;28;20518;-80
2022/05/10 00:24:19;;;;;;;4.63;3.28;;;10.30;99.90;;;;;;5072846;28;20033;-80
2022/05/10 00:26:45;;;;;;;6.65;4.15;;;10.30;99.90;;;;;;5072564;28;20103;-80
2022/05/10 00:29:10;;;;;;;6.60;3.80;;;10.30;99.90;;;;;;5072907;28;20074;-81
2022/05/10 00:31:36;;;;;;;7.82;3.67;;;10.30;99.90;;;;;;5072631;28;20476;-81
2022/05/10 00:34:03;;;;;;;7.47;3.92;;;10.30;99.90;;;;;;5073564;28;20527;-81
2022/05/10 00:36:30;;;;;;;8.18;4.65;;;10.40;99.90;;;;;;5076565;28;20503;-81
2022/05/10 00:38:56;;;;;;;9.57;5.10;;;10.30;99.90;;;;;;5076320;28;20036;-81
2022/05/10 00:41:41;;;;;;;10.60;5.38;;;10.40;99.90;;;;;;5076681;28;20523;-78
2022/05/10 00:44:29;;;;;;;10.40;5.25;;;10.40;99.90;;;;;;5062935;28;20381;-78
2022/05/10 00:47:18;;;;;;;8.23;5.05;;;10.40;99.90;;;;;;5077533;28;20028;-78
2022/05/10 00:49:57;;;;;;;8.95;5.75;;;10.40;99.90;;;;;;5077185;28;20029;-78
2022/05/10 00:52:36;;;;;;;9.77;5.65;;;10.40;99.90;;;;;;5076491;28;20368;-79
2022/05/10 00:55:40;;;;;;;11.65;5.30;;;10.40;99.90;;;;;;5076284;28;20032;-79
2022/05/10 00:58:06;;;;;;;9.65;5.90;;;10.40;99.90;;;;;;5057807;28;20016;-79
2022/05/10 01:00:32;;;;;;;7.65;5.18;;;10.40;99.90;;;;;;5075984;28;20495;-79
2022/05/10 01:03:12;;;;;;;9.25;5.28;;;10.30;99.90;;;;;;5063388;28;20087;-79
2022/05/10 01:05:59;;;;;;;11.52;6.50;;;10.30;99.90;;;;;;5076576;28;20150;-79
2022/05/10 01:08:40;;;;;;;10.45;6.38;;;10.30;99.90;;;;;;5076032;28;20024;-79
2022/05/10 01:11:25;;;;;;;9.68;5.90;;;10.20;99.90;;;;;;5075663;28;20059;-79
2022/05/10 01:14:11;;;;;;;9.85;5.22;;;10.10;99.90;;;;;;5058400;28;20028;-79
2022/05/10 01:16:36;;;;;;;8.25;4.97;;;10.00;99.90;;;;;;5074021;28;20033;-79
2022/05/10 01:19:02;;;;;;;7.68;4.75;;;9.90;99.90;;;;;;5076038;28;20529;-81
2022/05/10 01:21:56;;;;;;;10.00;4.93;;;9.80;99.90;;;;;;5075572;28;20021;-81
2022/05/10 01:24:30;;;;;;;9.50;4.93;;;9.90;99.90;;;;;;5075549;28;20039;-81
2022/05/10 01:27:32;;;;;;;7.82;4.68;;;9.80;99.90;;;;;;5075201;28;20387;-81
2022/05/10 01:30:04;;;;;;;7.57;4.90;;;9.80;99.90;;;;;;5075457;28;20028;-80
2022/05/10 01:35:25;;;;;;;8.17;4.50;;;9.70;99.90;;;;;;5075231;28;19966;-80
2022/05/10 01:37:55;;;;;;;6.10;4.25;;;9.70;99.90;;;;;;5076298;28;20269;-80
2022/05/10 01:40:35;;;;;;;6.53;4.07;;;9.70;99.90;;;;;;5075815;28;20035;-80
2022/05/10 01:43:07;;;;;;;9.05;4.57;;;9.70;99.90;;;;;;5075178;28;20042;-80
2022/05/10 01:45:41;;;;;;;6.78;4.47;;;9.70;99.90;;;;;;5076130;28;20031;-80
2022/05/10 01:48:12;;;;;;;8.27;4.65;;;9.60;99.90;;;;;;5075603;28;20071;-80
2022/05/10 01:50:46;;;;;;;6.93;4.88;;;9.60;99.90;;;;;;5075876;28;20029;-80
2022/05/10 01:53:16;;;;;;;7.60;4.30;;;9.60;99.90;;;;;;5067340;28;20035;-79
2022/05/10 01:55:46;;;;;;;8.85;4.63;;;9.60;99.90;;;;;;5075581;28;20496;-79
2022/05/10 01:58:17;;;;;;;7.18;4.22;;;9.60;99.90;;;;;;5074699;28;20028;-79
2022/05/10 02:00:55;;;;;;;7.50;4.55;;;9.60;99.90;;;;;;5075258;28;20024;-79
2022/05/10 02:03:37;;;;;;;6.40;4.30;;;9.60;99.90;;;;;;5074603;28;20032;-79
2022/05/10 02:06:31;;;;;;;9.52;5.40;;;9.60;99.90;;;;;;5075463;28;20036;-79
2022/05/10 02:09:12;;;;;;;9.45;4.90;;;9.60;99.90;;;;;;5075818;28;20060;-78
2022/05/10 02:11:41;;;;;;;7.93;4.97;;;9.50;99.90;;;;;;5074929;28;20380;-78
2022/05/10 02:14:21;;;;;;;7.38;4.90;;;9.50;99.90;;;;;;5075644;28;20021;-78
2022/05/10 02:17:25;;;;;;;7.60;4.72;;;9.40;99.90;;;;;;5076184;28;20094;-78
2022/05/10 02:20:06;;;;;;;6.97;4.05;;;9.30;99.90;;;;;;5046315;28;20029;-80
2022/05/10 02:22:58;;;;;;;6.68;4.55;;;9.30;99.90;;;;;;5075039;28;20039;-80
2022/05/10 02:25:29;;;;;;;6.40;4.15;;;9.30;99.90;;;;;;5074615;28;20165;-80
2022/05/10 02:27:59;;;;;;;6.00;3.78;;;9.30;99.90;;;;;;5075202;28;20111;-80
2022/05/10 02:30:33;;;;;;;5.85;4.05;;;9.20;99.90;;;;;;5074761;28;20024;-80
2022/05/10 02:33:09;;;;;;;5.75;3.80;;;9.20;99.90;;;;;;5056815;28;20392;-80
2022/05/10 02:35:44;;;;;;;5.53;3.72;;;9.20;99.90;;;;;;5075145;28;20515;-80
2022/05/10 02:38:16;;;;;;;6.18;3.95;;;9.20;99.90;;;;;;5074937;28;20028;-78
2022/05/10 02:40:44;;;;;;;5.45;3.67;;;9.10;99.90;;;;;;5074850;28;20078;-79
2022/05/10 02:43:12;;;;;;;6.88;3.50;;;9.10;99.90;;;;;;5073952;28;20032;-79
2022/05/10 02:45:39;;;;;;;5.95;3.60;;;9.10;99.90;;;;;;5074838;28;20070;-79
2022/05/10 02:48:11;;;;;;;7.68;4.15;;;9.10;99.90;;;;;;5074486;28;20473;-79
2022/05/10 02:50:37;;;;;;;8.10;4.72;;;9.10;99.90;;;;;;5074451;28;20029;-79
2022/05/10 02:53:02;;;;;;;7.07;4.10;;;9.10;99.90;;;;;;5074330;28;20025;-79
2022/05/10 02:55:34;;;;;;;7.35;4.30;;;9.00;99.90;;;;;;5074444;28;20021;-79
2022/05/10 02:58:11;;;;;;;6.53;3.78;;;9.00;99.90;;;;;;5073687;28;20052;-78
2022/05/10 03:00:37;;;;;;;7.15;4.38;;;9.00;99.90;;;;;;5074292;28;20120;-78
2022/05/10 03:03:08;;;;;;;6.15;3.92;;;8.90;99.90;;;;;;5074398;28;20033;-78
2022/05/10 03:05:34;;;;;;;7.95;4.00;;;8.90;99.90;;;;;;5073914;28;20028;-78
2022/05/10 03:07:59;;;;;;;8.02;4.10;;;8.90;99.90;;;;;;5074397;28;20077;-78
2022/05/10 03:10:25;;;;;;;6.75;3.97;;;8.80;99.90;;;;;;5073877;28;20043;-78
2022/05/10 03:12:51;;;;;;;6.32;4.20;;;8.80;99.90;;;;;;5055989;28;20128;-78
2022/05/10 03:15:17;;;;;;;6.18;3.80;;;8.80;99.90;;;;;;5074376;28;20020;-78
2022/05/10 03:17:42;;;;;;;9.35;4.47;;;8.80;99.90;;;;;;5074612;28;20527;-80
2022/05/10 03:20:09;;;;;;;10.43;5.00;;;8.70;99.90;;;;;;5074336;28;20025;-80
2022/05/10 03:22:34;;;;;;;7.63;4.88;;;8.70;99.90;;;;;;5073730;28;20041;-80
2022/05/10 03:25:00;;;;;;;7.95;4.70;;;8.70;99.90;;;;;;5073727;28;20031;-80
2022/05/10 03:27:26;;;;;;;6.30;3.35;;;8.70;99.90;;;;;;5055836;28;20029;-80
2022/05/10 03:29:52;;;;;;;5.47;3.38;;;8.70;99.90;;;;;;5072195;28;20040;-80
2022/05/10 03:32:17;;;;;;;5.93;3.33;;;8.60;99.90;;;;;;5073767;28;20028;-80
2022/05/10 03:34:56;;;;;;;6.05;3.70;;;8.50;99.90;;;;;;5074008;28;20074;-79
2022/05/10 03:37:23;;;;;;;4.45;3.05;;;8.50;99.90;;;;;;5074066;28;20017;-80
2022/05/10 03:39:49;;;;;;;5.50;2.70;;;8.40;99.90;;;;;;5073702;28;20070;-79
2022/05/10 03:42:14;;;;;;;6.38;3.75;;;8.40;99.90;;;;;;5072671;28;20036;-80
2022/05/10 03:44:40;;;;;;;6.40;3.80;;;8.30;99.90;;;;;;5073616;28;20064;-80
2022/05/10 03:47:09;;;;;;;8.77;3.53;;;8.30;99.90;;;;;;5073294;28;20039;-81
2022/05/10 03:49:35;;;;;;;7.88;3.50;;;8.30;99.90;;;;;;5074690;28;20020;-78
2022/05/10 03:52:02;;;;;;;5.80;3.67;;;8.20;99.90;;;;;;5055646;28;20091;-77
2022/05/10 03:54:28;;;;;;;5.95;3.45;;;8.20;99.90;;;;;;5072572;28;20052;-80
2022/05/10 03:56:53;;;;;;;5.80;3.55;;;8.20;99.90;;;;;;5073063;28;20028;-77
2022/05/10 03:59:20;;;;;;;5.70;3.55;;;8.20;99.90;;;;;;5074217;28;20039;-78
2022/05/10 04:01:46;;;;;;;6.05;3.85;;;8.20;99.90;;;;;;5064000;28;20071;-80
2022/05/10 04:04:12;;;;;;;5.80;4.22;;;8.10;99.90;;;;;;5072610;28;20033;-80
2022/05/10 04:06:38;;;;;;;8.20;3.63;;;8.10;99.90;;;;;;5072957;28;20021;-81
2022/05/10 04:09:04;;;;;;;5.95;3.83;;;8.10;99.90;;;;;;5065810;28;20028;-80
2022/05/10 04:11:29;;;;;;;4.88;3.30;;;8.10;99.90;;;;;;5067517;28;20035;-78
2022/05/10 04:13:55;;;;;;;6.18;3.65;;;8.10;99.90;;;;;;5076727;28;20029;-80
2022/05/10 04:16:22;;;;;;;6.63;3.35;;;8.10;99.90;;;;;;5076625;28;20100;-78
2022/05/10 04:18:48;;;;;;;4.88;3.33;;;8.10;99.90;;;;;;5058250;28;20070;-80
2022/05/10 04:21:14;;;;;;;5.45;3.28;;;8.10;99.90;;;;;;5063146;28;20358;-80
2022/05/10 04:23:39;;;;;;;5.63;3.80;;;8.10;99.90;;;;;;5076206;28;20020;-79
2022/05/10 04:26:07;;;;;;;6.47;3.60;;;8.10;99.90;;;;;;5076915;28;20542;-79
2022/05/10 04:28:35;;;;;;;5.63;3.90;;;8.10;99.90;;;;;;5054168;28;20028;-79
2022/05/10 04:31:01;;;;;;;7.72;5.05;;;8.10;99.90;;;;;;5060107;28;20032;-79
2022/05/10 04:33:27;;;;;;;6.78;4.80;;;8.10;99.90;;;;;;5077479;28;20021;-80
2022/05/10 04:35:53;;;;;;;6.43;4.10;;;8.10;99.90;;;;;;5075927;28;20051;-79
2022/05/10 04:38:19;;;;;;;6.35;3.80;;;8.10;99.90;;;;;;5057519;28;20146;-79
2022/05/10 04:43:30;;;;;;;8.95;4.40;;;8.00;99.90;;;;;;5075488;28;20500;-79
2022/05/10 04:45:58;;;;;;;8.95;5.95;;;8.00;99.90;;;;;;5075462;28;20032;-80
2022/05/10 04:48:24;;;;;;;7.95;4.78;;;8.00;99.90;;;;;;5075420;28;20078;-80
2022/05/10 04:50:50;;;;;;;7.88;5.00;;;7.90;99.90;;;;;;5075615;28;20460;-79
2022/05/10 04:53:16;;;;;;;7.45;4.50;;;7.90;99.90;;;;;;5057302;28;20099;-80
2022/05/10 04:55:41;;;;;;;7.28;4.30;;;7.90;99.90;;;;;;5075429;28;20046;-80
2022/05/10 04:58:07;;;;;;;6.13;4.18;;;7.90;99.90;;;;;;5075000;28;20024;-79
2022/05/10 05:00:33;;;;;;;8.27;4.32;;;8.00;99.90;;;;;;5075706;28;20465;-80
2022/05/10 05:02:59;;;;;;;7.60;4.28;;;8.00;99.90;;;;;;5075221;28;20496;-80
2022/05/10 05:05:24;;;;;;;6.35;4.45;;;7.90;99.90;;;;;;5074990;28;20538;-79
2022/05/10 05:07:50;;;;;;;6.32;3.53;;;7.90;99.90;;;;;;5075037;28;20056;-80
2022/05/10 05:10:16;;;;;;;6.25;4.13;;;7.80;99.90;;;;;;5056992;28;20020;-80
2022/05/10 05:12:42;;;;;;;8.80;4.50;;;7.70;99.90;;;;;;5074679;28;20484;-79
2022/05/10 05:15:11;;;;;;;7.70;4.93;;;7.70;99.90;;;;;;5075293;28;20071;-80
2022/05/10 05:17:37;;;;;;;6.53;4.63;;;7.60;99.90;;;;;;5074814;28;20033;-80
2022/05/10 05:20:04;;;;;;;7.85;4.22;;;7.60;99.90;;;;;;5074314;28;20366;-79
2022/05/10 05:22:30;;;;;;;8.43;4.97;;;7.60;99.90;;;;;;5056714;28;20025;-80
2022/05/10 05:24:56;;;;;;;8.32;4.72;;;7.70;99.90;;;;;;5075550;28;20082;-80
2022/05/10 05:27:21;;;;;;;9.98;4.93;;;7.70;99.90;;;;;;5074424;28;20029;-79
2022/05/10 05:29:47;;;;;;;9.23;5.00;;;7.80;99.90;;;;;;5074652;28;20427;-79
2022/05/10 05:32:16;;;;;;;5.60;3.90;;;7.90;99.90;;;;;;5074686;28;20025;-80
2022/05/10 05:34:42;;;;;;;7.18;4.55;;;7.90;99.90;;;;;;5024315;28;1436696;-80
2022/05/10 05:39:51;;;;;;;6.55;4.65;;;8.10;99.90;;;;;;5075604;28;20036;-79
2022/05/10 05:42:18;;;;;;;8.23;4.68;;;8.20;99.90;;;;;;5075356;28;20025;-79
2022/05/10 05:44:44;;;;;;;7.30;4.55;;;8.20;99.90;;;;;;5075610;28;20044;-80
2022/05/10 05:47:10;;;;;;;6.60;4.10;;;8.30;99.90;;;;;;5057529;28;20396;-80
2022/05/10 05:49:36;;;;;;;6.82;4.40;;;8.40;99.90;;;;;;5075406;28;20031;-80
2022/05/10 05:52:03;;;;;;;7.78;4.50;;;8.40;99.90;;;;;;5075261;28;20495;-80
2022/05/10 05:54:31;;;;;;;8.40;3.88;;;8.50;99.90;;;;;;5075344;28;20387;-80
2022/05/10 05:57:05;;;;;;;6.85;3.90;;;8.60;99.90;;;;;;5075354;28;20024;-79
2022/05/10 05:59:32;;;;;;;9.13;4.85;;;8.70;99.90;;;;;;5075235;28;20041;-80
2022/05/10 06:01:58;;;;;;;6.65;4.20;;;8.80;99.90;;;;;;5075783;28;20376;-80
2022/05/10 06:04:24;;;;;;;7.53;3.85;;;8.80;99.90;;;;;;5075339;28;20094;-79
2022/05/10 06:06:50;;;;;;;10.75;4.63;;;8.90;99.90;;;;;;5075032;28;20024;-80
2022/05/10 06:09:19;;;;;;;9.15;4.63;;;9.00;99.90;;;;;;5074958;28;20028;-80
2022/05/10 06:11:45;;;;;;;8.75;4.47;;;9.10;99.90;;;;;;5075268;28;20021;-80
2022/05/10 06:14:11;;;;;;;7.40;4.38;;;9.20;99.90;;;;;;5074729;28;20107;-79
2022/05/10 06:16:40;;;;;;;7.28;4.00;;;9.30;99.90;;;;;;5057043;28;20016;-80
2022/05/10 06:19:06;;;;;;;10.02;5.05;;;9.40;99.90;;;;;;5075017;28;20074;-80
2022/05/10 06:21:32;;;;;;;7.88;4.82;;;9.40;99.90;;;;;;5075109;28;20431;-80
2022/05/10 06:23:58;;;;;;;7.78;4.32;;;9.60;99.90;;;;;;5074696;28;20066;-80
2022/05/10 06:26:24;;;;;;;6.07;4.40;;;9.70;99.90;;;;;;5074742;28;20032;-80
2022/05/10 06:28:50;;;;;;;10.35;4.93;;;9.80;99.90;;;;;;5074463;28;20078;-79
2022/05/10 06:31:15;;;;;;;12.23;5.35;;;9.90;99.90;;;;;;5074003;28;20544;-80
2022/05/10 06:33:41;;;;;;;13.38;6.47;;;10.00;99.90;;;;;;5074899;28;20027;-80
2022/05/10 06:36:07;;;;;;;14.88;6.95;;;10.10;99.90;;;;;;5056678;28;20119;-80
2022/05/10 06:38:34;;;;;;;10.68;6.70;;;10.20;99.90;;;;;;5056479;28;20028;-79
2022/05/10 06:41:01;;;;;;;15.05;7.32;;;10.40;99.90;;;;;;5056431;28;20025;-80
2022/05/10 06:43:28;;;;;;;13.23;7.35;;;10.50;99.90;;;;;;5074315;28;20499;-79
2022/05/10 06:45:57;;;;;;;10.70;6.88;;;10.60;99.90;;;;;;5074338;28;20024;-80
2022/05/10 06:48:24;;;;;;;14.20;8.15;;;10.70;99.90;;;;;;5074442;28;20044;-80
2022/05/10 06:50:50;;;;;;;13.15;8.02;;;10.90;99.90;;;;;;5074107;28;20539;-80
2022/05/10 06:53:16;;;;;;;13.75;8.40;;;11.00;99.90;;;;;;5074103;28;20033;-80
2022/05/10 06:55:42;;;;;;;12.82;8.18;;;11.10;99.90;;;;;;5074044;28;20024;-80
2022/05/10 06:58:09;;;;;;;15.18;6.90;;;11.30;99.90;;;;;;5073805;28;20108;-80
2022/05/10 07:00:38;;;;;;;9.82;6.70;;;11.40;99.90;;;;;;5056319;28;20020;-80
2022/05/10 07:03:06;;;;;;;10.13;5.95;;;11.60;99.90;;;;;;5073924;28;20028;-81
2022/05/10 07:05:32;;;;;;;8.07;4.95;;;11.70;99.90;;;;;;5055886;28;20093;-80
2022/05/10 07:07:58;;;;;;;6.85;4.03;;;11.90;99.90;;;;;;5074137;28;20021;-80
2022/05/10 07:10:24;;;;;;;8.63;4.25;;;12.00;99.90;;;;;;5074006;28;20043;-81
2022/05/10 07:12:49;;;;;;;7.30;4.70;;;12.20;99.90;;;;;;5073628;28;20028;-80
2022/05/10 07:15:18;;;;;;;7.38;4.22;;;12.30;99.90;;;;;;5073865;28;20451;-80
2022/05/10 07:17:44;;;;;;;6.97;4.00;;;12.50;99.90;;;;;;5054808;28;20404;-80
2022/05/10 07:20:12;;;;;;;6.78;4.55;;;12.60;99.90;;;;;;5071747;28;20024;-80
2022/05/10 07:22:38;;;;;;;9.10;4.35;;;12.80;99.90;;;;;;5054596;28;20357;-80
2022/05/10 07:25:05;;;;;;;8.73;3.95;;;12.90;99.90;;;;;;5071686;28;20096;-80
2022/05/10 07:27:31;;;;;;;7.53;4.03;;;13.10;99.90;;;;;;5074003;28;20035;-81
2022/05/10 07:29:56;;;;;;;7.90;4.47;;;13.20;99.90;;;;;;5073668;28;20087;-81
2022/05/10 07:32:24;;;;;;;7.15;5.18;;;13.30;99.90;;;;;;5055661;28;20449;-81
2022/05/10 07:34:50;;;;;;;7.57;3.70;;;13.50;99.90;;;;;;5073637;28;20074;-80
2022/05/10 07:37:16;;;;;;;7.68;3.38;;;13.70;99.90;;;;;;5073563;28;20028;-81
2022/05/10 07:39:42;;;;;;;7.43;3.72;;;13.80;99.90;;;;;;5073862;28;20028;-79
2022/05/10 07:42:07;;;;;;;7.07;3.63;;;13.90;99.90;;;;;;5073575;28;20065;-81
2022/05/10 07:44:34;;;;;;;7.07;3.30;;;14.10;99.90;;;;;;5073437;28;20060;-81
2022/05/10 07:47:00;;;;;;;7.93;3.85;;;14.20;99.90;;;;;;5073780;28;20031;-81
2022/05/10 07:49:26;;;;;;;6.40;4.32;;;14.30;99.90;;;;;;5073384;28;20028;-80
2022/05/10 07:51:52;;;;;;;10.45;4.45;;;14.50;99.90;;;;;;5073648;28;20029;-81
2022/05/10 07:54:18;;;;;;;9.63;6.75;;;14.60;99.90;;;;;;5073672;28;20035;-81
2022/05/10 07:56:43;;;;;;;6.15;4.18;;;14.70;99.90;;;;;;5073112;28;20024;-80
2022/05/10 07:59:09;;;;;;;8.50;3.75;;;14.90;99.90;;;;;;5073380;28;20101;-80
2022/05/10 08:01:35;;;;;;;6.68;3.40;;;15.00;99.90;;;;;;5055371;28;20025;-81
2022/05/10 08:04:01;;;;;;;6.57;3.05;;;15.20;99.90;;;;;;5073394;28;20028;-81
2022/05/10 08:06:27;;;;;;;4.15;3.28;;;15.30;99.90;;;;;;5073559;28;20032;-81
2022/05/10 08:08:53;;;;;;;6.97;4.07;;;15.40;99.90;;;;;;5073144;28;20451;-81
2022/05/10 08:11:20;;;;;;;6.20;3.67;;;15.50;99.90;;;;;;5072921;28;20059;-80
2022/05/10 08:13:46;;;;;;;5.85;3.38;;;15.60;99.90;;;;;;5073220;28;20024;-81
2022/05/10 08:16:11;;;;;;;8.30;3.50;;;15.80;99.80;;;;;;5073412;28;20385;-81
2022/05/10 08:18:45;;;;;;;6.20;3.45;;;15.90;99.90;;;;;;5073053;28;20039;-81
2022/05/10 08:21:12;;;;;;;7.68;3.00;;;16.00;99.20;;;;;;5055317;28;20024;-81
2022/05/10 08:23:38;;;;;;;4.20;2.60;;;16.10;98.30;;;;;;5055050;28;20485;-81
2022/05/10 08:26:06;;;;;;;4.68;2.97;;;16.20;97.30;;;;;;5072853;28;20108;-81
2022/05/10 08:28:34;;;;;;;6.60;3.30;;;16.40;97.30;;;;;;5072998;28;20035;-81
2022/05/10 08:31:03;;;;;;;8.45;4.07;;;16.50;98.40;;;;;;5054953;28;20031;-81
2022/05/10 08:33:32;;;;;;;7.20;3.78;;;16.70;98.10;;;;;;5073213;28;20021;-81
2022/05/10 08:35:59;;;;;;;9.35;4.13;;;16.80;98.30;;;;;;5072861;28;20029;-81
2022/05/10 08:38:26;;;;;;;6.88;3.30;;;17.00;98.90;;;;;;5073001;28;20035;-81
2022/05/10 08:40:57;;;;;;;6.70;3.63;;;17.10;97.40;;;;;;5072654;28;20028;-80
2022/05/10 08:43:32;;;;;;;6.80;3.15;;;17.30;97.40;;;;;;5072970;28;20100;-81
2022/05/10 08:45:58;;;;;;;6.07;2.92;;;17.40;96.30;;;;;;5073166;28;20028;-81
2022/05/10 08:48:27;;;;;;;5.38;2.55;;;17.50;96.50;;;;;;5072930;28;20020;-81
2022/05/10 08:50:53;;;;;;;5.18;2.63;;;17.60;96.00;;;;;;5054709;28;20021;-81
2022/05/10 08:53:19;;;;;;;5.95;2.53;;;17.80;95.40;;;;;;5072881;28;20031;-81
2022/05/10 08:55:56;;;;;;;3.58;2.20;;;17.90;94.00;;;;;;5074847;28;20024;-81
2022/05/10 08:58:46;;;;;;;5.43;2.50;;;18.10;91.90;;;;;;5076785;28;20377;-81
2022/05/10 09:01:26;;;;;;;4.60;2.67;;;18.10;91.10;;;;;;5076375;28;20028;-81
2022/05/10 09:04:03;;;;;;;4.97;2.95;;;18.30;91.40;;;;;;5076630;28;20032;-80
2022/05/10 09:06:58;;;;;;;4.80;2.97;;;18.40;93.10;;;;;;5077486;28;20096;-81
2022/05/10 09:09:27;;;;;;;5.63;2.40;;;18.60;92.10;;;;;;5025134;28;20043;-81
2022/05/10 09:12:05;;;;;;;5.57;2.90;;;18.70;91.30;;;;;;5075869;28;20028;-81
2022/05/10 09:14:40;;;;;;;5.68;2.83;;;18.90;91.60;;;;;;5076459;28;20090;-81
2022/05/10 09:17:08;;;;;;;4.55;2.47;;;19.00;90.60;;;;;;5076452;28;20023;-81
2022/05/10 09:19:42;;;;;;;4.50;2.38;;;19.10;91.00;;;;;;5076209;28;20376;-81
2022/05/10 09:22:59;;;;;;;6.03;2.72;;;19.20;91.40;;;;;;5076376;28;20024;-81
2022/05/10 09:25:33;;;;;;;5.00;2.55;;;19.30;91.00;;;;;;5033548;28;20033;-80
2022/05/10 09:28:11;;;;;;;3.28;2.10;;;19.40;90.00;;;;;;5076218;28;20047;-81
2022/05/10 09:30:37;;;;;;;4.65;2.40;;;19.60;90.60;;;;;;5076114;28;20108;-81
2022/05/10 09:36:11;;;;;;;3.90;2.45;;;19.90;88.50;;;;;;5076021;28;20036;-81
2022/05/10 09:38:47;;;;;;;4.78;2.55;;;20.10;86.50;;;;;;5076051;28;20029;-80
2022/05/10 09:41:26;;;;;;;5.18;2.28;;;20.20;85.50;;;;;;5075835;28;20468;-81
2022/05/10 09:43:53;;;;;;;8.82;2.42;;;20.30;80.30;;;;;;5057719;28;20056;-81
2022/05/10 09:46:19;;;;;;;6.50;2.50;;;20.40;82.00;;;;;;5075593;28;20028;-81
2022/05/10 09:48:45;;;;;;;;;;;20.50;82.90;;;;;;5075238;28;20468;-81
2022/05/10 09:51:29;;;;;;;;;;;20.80;81.60;;;;;;5074679;28;20406;-81
2022/05/10 09:53:56;;;;;;;;;;;20.90;81.20;;;;;;5076233;28;19904;-81
2022/05/10 09:56:28;;;;;;;;;;;21.10;78.30;;;;;;5075537;28;19908;-81
2022/05/10 09:58:59;;;;;;;;;;;21.20;74.40;;;;;;5075710;28;19911;-81
2022/05/10 10:01:43;;;;;;;;;;;21.30;72.40;;;;;;5075746;28;19904;-81
2022/05/10 10:04:13;;;;;;;;;;;21.30;70.70;;;;;;5057736;28;19905;-81
2022/05/10 10:06:39;;;;;;;;;;;21.50;70.50;;;;;;5056515;28;19904;-81
2022/05/10 10:09:04;;;;;;;;;;;21.60;73.80;;;;;;5075768;28;20257;-81
2022/05/10 10:11:31;;;;;;;;;;;21.70;69.30;;;;;;5075284;28;19916;-81
2022/05/10 10:13:58;;;;;;;;;;;21.70;68.60;;;;;;5057855;28;19905;-81
2022/05/10 10:16:30;;;;;;;;;;;21.80;67.70;;;;;;5075633;28;19904;-81
2022/05/10 10:18:59;;;;;;;;;;;21.90;72.30;;;;;;5075493;28;19987;-81
2022/05/10 10:21:25;;;;;;;;;;;22.00;72.40;;;;;;5075634;28;19930;-81
2022/05/10 10:23:52;;;;;;;;;;;22.10;65.60;;;;;;5075313;28;20003;-81
2022/05/10 10:26:24;;;;;;;;;;;22.00;64.60;;;;;;5074905;28;20355;-81
2022/05/10 10:28:52;;;;;;;;;;;21.90;63.90;;;;;;5075393;28;19949;-81
2022/05/10 10:31:20;;;;;;;;;;;22.10;61.70;;;;;;5075409;28;19916;-81
2022/05/10 10:33:50;;;;;;;;;;;22.10;62.90;;;;;;5075075;28;19987;-81
2022/05/10 10:36:22;;;;;;;;;;;22.20;60.10;;;;;;5075005;28;19916;-81
2022/05/10 10:39:06;;;;;;;;;;;22.30;59.30;;;;;;5074974;28;19987;-80
2022/05/10 10:41:34;;;;;;;;;;;22.60;60.60;;;;;;5073685;28;20000;-80
2022/05/10 10:44:07;;;;;;;;;;;22.70;60.80;;;;;;5074860;28;19991;-81
2022/05/10 10:46:38;;;;;;;;;;;22.90;64.70;;;;;;5075996;28;19908;-78
2022/05/10 10:49:06;;;;;;;;;;;23.10;58.90;;;;;;5077515;28;19911;-78
2022/05/10 10:51:33;;;;;;;;;;;23.20;54.80;;;;;;5076831;28;19965;-78
2022/05/10 10:53:59;;;;;;;;;;;23.00;54.80;;;;;;5077704;28;19958;-78
2022/05/10 10:56:34;;;;;;;;;;;22.90;50.00;;;;;;5059296;28;19908;-78
2022/05/10 10:59:11;;;;;;;;;;;23.00;49.70;;;;;;5077710;28;19950;-78
2022/05/10 11:01:36;;;;;;;;;;;23.10;52.40;;;;;;5077119;28;19991;-78
2022/05/10 11:04:22;;;;;;;;;;;23.20;52.00;;;;;;5073664;28;19951;-81
2022/05/10 11:06:51;;;;;;;;;;;23.30;51.30;;;;;;5063505;28;19951;-82
2022/05/10 11:09:24;;;;;;;;;;;23.30;49.80;;;;;;5074344;28;19911;-81
2022/05/10 11:11:49;;;;;;;;;;;23.40;51.30;;;;;;5073939;28;19915;-81
2022/05/10 11:14:34;;;;;;;;;;;23.40;51.90;;;;;;5074556;28;20272;-82
2022/05/10 11:16:59;;;;;;;;;;;23.50;50.60;;;;;;5074194;28;19905;-82
2022/05/10 11:19:48;;;;;;;;;;;23.70;50.70;;;;;;5075941;28;19912;-82
2022/05/10 11:22:31;;;;;;;;;;;23.90;52.30;;;;;;5077780;28;19905;-81
2022/05/10 11:24:58;;;;;;;;;;;24.00;51.50;;;;;;5074224;28;19940;-81
2022/05/10 11:27:30;;;;;;;;;;;24.00;49.70;;;;;;5074224;28;20272;-81
2022/05/10 11:29:59;;;;;;;;;;;23.90;51.30;;;;;;5074149;28;19955;-81
2022/05/10 11:32:48;;;;;;;;;;;23.90;51.90;;;;;;5074430;28;20401;-81
2022/05/10 11:35:22;;;;;;;;;;;24.00;50.90;;;;;;5056216;28;20360;-82
2022/05/10 11:38:11;;;;;;;;;;;24.00;52.50;;;;;;5074284;28;20274;-82
2022/05/10 11:40:48;;;;;;;;;;;24.00;50.20;;;;;;5050542;28;19966;-82
2022/05/10 11:43:32;;;;;;;;;;;23.90;49.70;;;;;;5074124;28;20314;-81
2022/05/10 11:46:03;;;;;;;;;;;23.80;48.70;;;;;;5073899;28;19911;-81
2022/05/10 11:48:28;;;;;;;;;;;23.80;48.00;;;;;;5074088;28;20264;-80
2022/05/10 11:53:58;;;;;;;;;;;23.80;46.60;;;;;;5074307;28;20268;-81
2022/05/10 11:56:28;;;;;;;;;;;23.90;40.70;;;;;;5073705;28;19908;-80
2022/05/10 11:58:55;;;;;;;;;;;24.00;44.50;;;;;;5074151;28;19911;-81
2022/05/10 12:01:39;;;;;;;;;;;24.20;45.40;;;;;;5073824;28;19904;-81
2022/05/10 12:04:05;;;;;;;;;;;24.30;46.40;;;;;;5073775;28;19904;-80
2022/05/10 12:06:32;;;;;;;;;;;24.50;43.60;;;;;;5074058;28;19954;-80
2022/05/10 12:08:58;;;;;;;;;;;24.60;47.10;;;;;;5073977;28;20257;-81
2022/05/10 12:11:38;;;;;;;;;;;24.50;44.10;;;;;;5073620;28;19953;-79
2022/05/10 12:22:22;;;;;;;;;;;24.40;45.50;;;;;;5074044;28;20010;-80
2022/05/10 12:24:48;;;;;;;;;;;24.40;47.00;;;;;;5073968;28;20360;-80
2022/05/10 12:27:15;;;;;;;1.75;1.30;;;24.40;46.60;;;;;;5073229;28;19904;-80
2022/05/10 12:29:40;;;;;;;4.07;1.10;;;24.60;47.30;;;;;;5073542;28;20020;-81
2022/05/10 12:32:09;;;;;;;5.60;1.48;;;24.80;46.80;;;;;;5076884;28;20032;-80
2022/05/10 12:34:57;;;;;;;2.88;1.20;;;25.10;47.20;;;;;;5080188;28;20075;-81
2022/05/10 12:37:24;;;;;;;5.57;1.50;;;25.30;45.60;;;;;;5077263;28;20082;-81
2022/05/10 12:39:59;;;;;;;2.20;1.25;;;25.20;47.60;;;;;;5076826;28;20021;-80
2022/05/10 12:42:48;;;;;;;2.63;1.38;;;25.20;45.20;;;;;;5076401;28;20105;-80
2022/05/10 12:45:33;;;;;;;3.92;1.25;;;25.20;44.70;;;;;;5077038;28;20420;-80
2022/05/10 12:48:21;;;;;;;1.77;1.10;;;25.20;44.70;;;;;;5076955;28;20031;-80
2022/05/10 12:51:09;;;;;;;1.73;1.25;;;25.10;46.10;;;;;;5076887;28;20060;-80
2022/05/10 12:53:53;;;;;;;2.88;1.25;;;25.10;44.60;;;;;;5076647;28;20020;-80
2022/05/10 12:56:24;;;;;;;2.95;1.48;;;25.00;44.20;;;;;;5076822;28;20159;-81
2022/05/10 12:59:16;;;;;;;2.40;1.20;;;25.20;44.90;;;;;;5076681;28;20025;-80
2022/05/10 13:01:42;;;;;;;3.97;1.50;;;25.30;45.90;;;;;;5062876;28;20036;-80
2022/05/10 13:04:20;;;;;;;2.67;1.50;;;25.20;45.10;;;;;;5076764;28;20170;-80
2022/05/10 13:07:19;;;;;;;2.08;1.25;;;25.30;46.70;;;;;;5077085;28;20099;-80
2022/05/10 13:09:55;;;;;;;1.98;1.05;;;25.20;44.50;;;;;;5076458;28;20048;-80
2022/05/10 13:12:34;;;;;;;2.65;1.27;;;25.00;44.10;;;;;;5076061;28;20426;-80
2022/05/10 13:15:03;;;;;;;3.50;1.42;;;24.90;44.30;;;;;;5076479;28;20017;-80
2022/05/10 13:17:32;;;;;;;6.97;1.55;;;25.10;45.60;;;;;;5076036;28;20025;-80
2022/05/10 13:19:59;;;;;;;4.93;1.30;;;25.10;46.00;;;;;;5076123;28;20070;-80
2022/05/10 13:22:27;;;;;;;3.20;1.20;;;25.20;44.50;;;;;;5076097;28;20419;-80
2022/05/10 13:24:55;;;;;;;3.53;1.30;;;25.10;43.70;;;;;;5058245;28;20028;-80
2022/05/10 13:27:30;;;;;;;2.95;1.38;;;25.00;43.30;;;;;;5075742;28;20024;-80
2022/05/10 13:30:18;;;;;;;2.58;1.40;;;24.90;44.60;;;;;;5057896;28;20490;-81
2022/05/10 13:32:44;;;;;;;2.42;1.30;;;24.90;45.20;;;;;;5075200;28;20068;-81
2022/05/10 13:35:10;;;;;;;4.07;1.58;;;25.00;46.10;;;;;;5075746;28;20413;-80
2022/05/10 13:37:38;;;;;;;5.43;1.70;;;24.90;45.20;;;;;;5075778;28;20082;-81
2022/05/10 13:40:29;;;;;;;3.53;1.80;;;24.90;46.90;;;;;;5075808;28;20154;-81
2022/05/10 13:43:05;;;;;;;2.60;1.60;;;24.90;49.40;;;;;;5064113;28;20025;-79
2022/05/10 13:45:32;;;;;;;3.42;1.90;;;25.00;46.40;;;;;;5076543;28;20028;-79
2022/05/10 13:48:09;;;;;;;4.68;1.60;;;25.10;47.90;;;;;;5076218;28;20017;-79